sensor_id;sensor_type;location;lat;lon;timestamp;pressure;altitude;pressure_sealevel;temperature;humidity
63954;BME280;50128;52.094;5.232;2023-02-04T00:01:37;102082.0;;;2.62;90.43
63954;BME280;50128;52.094;5.232;2023-02-04T00:03:14;102080.0;;;2.68;89.97
63954;BME280;50128;52.094;5.232;2023-02-04T00:04:50;102082.0;;;2.64;90.42
63954;BME280;50128;52.094;5.232;2023-02-04T00:08:04;102084.0;;;2.56;90.97
63954;BME280;50128;52.094;5.232;2023-02-04T00:09:39;102091.0;;;2.57;91.3
63954;BME280;50128;52.094;5.232;2023-02-04T00:11:16;102092.0;;;2.56;91.42
63954;BME280;50128;52.094;5.232;2023-02-04T00:12:52;102089.0;;;2.54;91.53
63954;BME280;50128;52.094;5.232;2023-02-04T00:16:05;102090.0;;;2.54;91.56
63954;BME280;50128;52.094;5.232;2023-02-04T00:17:41;102092.0;;;2.48;91.89
63954;BME280;50128;52.094;5.232;2023-02-04T00:19:17;102092.0;;;2.54;91.66
63954;BME280;50128;52.094;5.232;2023-02-04T00:22:30;102095.0;;;2.48;91.88
63954;BME280;50128;52.094;5.232;2023-02-04T00:24:06;102096.0;;;2.42;92.34
63954;BME280;50128;52.094;5.232;2023-02-04T00:25:42;102090.0;;;2.48;92.01
63954;BME280;50128;52.094;5.232;2023-02-04T00:28:55;102093.0;;;2.46;92.34
63954;BME280;50128;52.094;5.232;2023-02-04T00:30:31;102099.0;;;2.42;92.58
63954;BME280;50128;52.094;5.232;2023-02-04T00:32:08;102097.0;;;2.32;92.96
63954;BME280;50128;52.094;5.232;2023-02-04T00:35:20;102092.0;;;2.27;93.26
63954;BME280;50128;52.094;5.232;2023-02-04T00:36:57;102096.0;;;2.25;93.31
63954;BME280;50128;52.094;5.232;2023-02-04T00:38:33;102095.0;;;2.17;93.7
63954;BME280;50128;52.094;5.232;2023-02-04T00:40:11;102097.0;;;2.08;94.08
63954;BME280;50128;52.094;5.232;2023-02-04T00:43:23;102096.0;;;2.13;94.17
63954;BME280;50128;52.094;5.232;2023-02-04T00:44:59;102101.0;;;2.04;94.72
63954;BME280;50128;52.094;5.232;2023-02-04T00:46:35;102105.0;;;2.07;94.68
63954;BME280;50128;52.094;5.232;2023-02-04T00:49:47;102106.0;;;1.99;95.01
63954;BME280;50128;52.094;5.232;2023-02-04T00:51:24;102107.0;;;1.84;96.12
63954;BME280;50128;52.094;5.232;2023-02-04T00:53:01;102110.0;;;1.86;96.28
63954;BME280;50128;52.094;5.232;2023-02-04T00:56:13;102111.0;;;1.86;96.51
63954;BME280;50128;52.094;5.232;2023-02-04T00:59:26;102113.0;;;1.84;97.05
63954;BME280;50128;52.094;5.232;2023-02-04T01:01:03;102115.0;;;1.79;97.7
63954;BME280;50128;52.094;5.232;2023-02-04T01:04:16;102115.0;;;1.84;97.9
63954;BME280;50128;52.094;5.232;2023-02-04T01:05:53;102112.0;;;1.81;98.31
63954;BME280;50128;52.094;5.232;2023-02-04T01:07:29;102113.0;;;1.79;98.67
63954;BME280;50128;52.094;5.232;2023-02-04T01:10:42;102113.0;;;1.82;98.86
63954;BME280;50128;52.094;5.232;2023-02-04T01:12:18;102113.0;;;1.85;98.7
63954;BME280;50128;52.094;5.232;2023-02-04T01:13:54;102120.0;;;1.85;98.54
63954;BME280;50128;52.094;5.232;2023-02-04T01:17:06;102123.0;;;1.74;99.36
63954;BME280;50128;52.094;5.232;2023-02-04T01:18:42;102124.0;;;1.69;100.0
63954;BME280;50128;52.094;5.232;2023-02-04T01:20:19;102128.0;;;1.77;99.9
63954;BME280;50128;52.094;5.232;2023-02-04T01:21:55;102130.0;;;1.69;100.0
63954;BME280;50128;52.094;5.232;2023-02-04T01:25:08;102138.0;;;1.56;100.0
63954;BME280;50128;52.094;5.232;2023-02-04T01:26:44;102140.0;;;1.59;100.0
63954;BME280;50128;52.094;5.232;2023-02-04T01:28:20;102140.0;;;1.65;100.0
63954;BME280;50128;52.094;5.232;2023-02-04T01:31:33;102138.0;;;1.7;100.0
63954;BME280;50128;52.094;5.232;2023-02-04T01:33:10;102138.0;;;1.62;100.0
63954;BME280;50128;52.094;5.232;2023-02-04T01:34:46;102145.0;;;1.66;100.0
63954;BME280;50128;52.094;5.232;2023-02-04T01:37:58;102145.0;;;1.67;100.0
63954;BME280;50128;52.094;5.232;2023-02-04T01:39:35;102149.0;;;1.71;100.0
63954;BME280;50128;52.094;5.232;2023-02-04T01:41:12;102153.0;;;1.68;100.0
63954;BME280;50128;52.094;5.232;2023-02-04T01:42:50;102156.0;;;1.71;100.0
63954;BME280;50128;52.094;5.232;2023-02-04T01:46:04;102157.0;;;1.69;100.0
63954;BME280;50128;52.094;5.232;2023-02-04T01:47:41;102161.0;;;1.63;100.0
63954;BME280;50128;52.094;5.232;2023-02-04T01:49:19;102163.0;;;1.65;100.0
63954;BME280;50128;52.094;5.232;2023-02-04T01:52:41;102158.0;;;1.64;100.0
63954;BME280;50128;52.094;5.232;2023-02-04T01:54:20;102165.0;;;1.67;100.0
63954;BME280;50128;52.094;5.232;2023-02-04T01:55:57;102166.0;;;1.7;100.0
63954;BME280;50128;52.094;5.232;2023-02-04T01:57:35;102165.0;;;1.61;100.0
63954;BME280;50128;52.094;5.232;2023-02-04T02:02:44;102166.0;;;1.57;100.0
63954;BME280;50128;52.094;5.232;2023-02-04T02:04:28;102163.0;;;1.53;100.0
63954;BME280;50128;52.094;5.232;2023-02-04T02:06:07;102165.0;;;1.57;100.0
63954;BME280;50128;52.094;5.232;2023-02-04T02:09:21;102171.0;;;1.64;100.0
63954;BME280;50128;52.094;5.232;2023-02-04T02:10:58;102175.0;;;1.68;100.0
63954;BME280;50128;52.094;5.232;2023-02-04T02:12:34;102174.0;;;1.6;100.0
63954;BME280;50128;52.094;5.232;2023-02-04T02:15:48;102177.0;;;1.59;100.0
63954;BME280;50128;52.094;5.232;2023-02-04T02:17:24;102174.0;;;1.66;100.0
63954;BME280;50128;52.094;5.232;2023-02-04T02:19:01;102175.0;;;1.45;100.0
63954;BME280;50128;52.094;5.232;2023-02-04T02:20:39;102175.0;;;1.46;100.0
63954;BME280;50128;52.094;5.232;2023-02-04T02:24:23;102173.0;;;1.49;100.0
63954;BME280;50128;52.094;5.232;2023-02-04T02:26:01;102176.0;;;1.49;100.0
63954;BME280;50128;52.094;5.232;2023-02-04T02:27:37;102175.0;;;1.54;100.0
63954;BME280;50128;52.094;5.232;2023-02-04T02:29:14;102177.0;;;1.39;100.0
63954;BME280;50128;52.094;5.232;2023-02-04T02:32:27;102178.0;;;1.28;100.0
63954;BME280;50128;52.094;5.232;2023-02-04T02:34:03;102174.0;;;1.43;100.0
63954;BME280;50128;52.094;5.232;2023-02-04T02:35:43;102176.0;;;1.47;100.0
63954;BME280;50128;52.094;5.232;2023-02-04T02:37:21;102176.0;;;1.51;100.0
63954;BME280;50128;52.094;5.232;2023-02-04T02:42:14;102181.0;;;1.52;100.0
63954;BME280;50128;52.094;5.232;2023-02-04T02:43:51;102181.0;;;1.56;100.0
63954;BME280;50128;52.094;5.232;2023-02-04T02:47:11;102180.0;;;1.58;100.0
63954;BME280;50128;52.094;5.232;2023-02-04T02:48:49;102176.0;;;1.53;100.0
63954;BME280;50128;52.094;5.232;2023-02-04T02:50:27;102180.0;;;1.31;100.0
63954;BME280;50128;52.094;5.232;2023-02-04T02:52:04;102184.0;;;1.3;100.0
63954;BME280;50128;52.094;5.232;2023-02-04T02:55:18;102183.0;;;1.36;100.0
63954;BME280;50128;52.094;5.232;2023-02-04T02:56:56;102182.0;;;1.27;100.0
63954;BME280;50128;52.094;5.232;2023-02-04T02:58:34;102185.0;;;1.44;100.0
63954;BME280;50128;52.094;5.232;2023-02-04T03:01:54;102191.0;;;1.42;100.0
63954;BME280;50128;52.094;5.232;2023-02-04T03:03:34;102190.0;;;1.38;100.0
63954;BME280;50128;52.094;5.232;2023-02-04T03:05:13;102189.0;;;1.42;100.0
63954;BME280;50128;52.094;5.232;2023-02-04T03:06:49;102187.0;;;1.4;100.0
63954;BME280;50128;52.094;5.232;2023-02-04T03:10:04;102189.0;;;1.31;100.0
63954;BME280;50128;52.094;5.232;2023-02-04T03:11:40;102194.0;;;1.33;100.0
63954;BME280;50128;52.094;5.232;2023-02-04T03:13:17;102193.0;;;1.25;100.0
63954;BME280;50128;52.094;5.232;2023-02-04T03:14:54;102194.0;;;1.27;100.0
63954;BME280;50128;52.094;5.232;2023-02-04T03:18:10;102194.0;;;1.23;100.0
63954;BME280;50128;52.094;5.232;2023-02-04T03:19:48;102186.0;;;1.23;100.0
63954;BME280;50128;52.094;5.232;2023-02-04T03:21:24;102188.0;;;1.13;100.0
63954;BME280;50128;52.094;5.232;2023-02-04T03:24:37;102186.0;;;1.21;100.0
63954;BME280;50128;52.094;5.232;2023-02-04T03:26:14;102182.0;;;1.25;100.0
63954;BME280;50128;52.094;5.232;2023-02-04T03:27:50;102186.0;;;1.08;100.0
63954;BME280;50128;52.094;5.232;2023-02-04T03:31:03;102182.0;;;1.05;100.0
63954;BME280;50128;52.094;5.232;2023-02-04T03:32:40;102183.0;;;1.07;100.0
63954;BME280;50128;52.094;5.232;2023-02-04T03:34:16;102181.0;;;0.96;100.0
63954;BME280;50128;52.094;5.232;2023-02-04T03:35:53;102180.0;;;1.0;100.0
63954;BME280;50128;52.094;5.232;2023-02-04T03:39:06;102183.0;;;0.97;100.0
63954;BME280;50128;52.094;5.232;2023-02-04T03:40:43;102182.0;;;0.88;100.0
63954;BME280;50128;52.094;5.232;2023-02-04T03:42:20;102184.0;;;0.79;100.0
63954;BME280;50128;52.094;5.232;2023-02-04T03:45:33;102183.0;;;0.73;100.0
63954;BME280;50128;52.094;5.232;2023-02-04T03:47:09;102189.0;;;0.7;100.0
63954;BME280;50128;52.094;5.232;2023-02-04T03:48:45;102187.0;;;0.57;100.0
63954;BME280;50128;52.094;5.232;2023-02-04T03:51:57;102201.0;;;0.48;100.0
63954;BME280;50128;52.094;5.232;2023-02-04T03:53:33;102199.0;;;0.4;100.0
63954;BME280;50128;52.094;5.232;2023-02-04T03:55:10;102201.0;;;0.42;100.0
63954;BME280;50128;52.094;5.232;2023-02-04T03:56:46;102201.0;;;0.45;100.0
63954;BME280;50128;52.094;5.232;2023-02-04T03:59:58;102200.0;;;0.31;100.0
63954;BME280;50128;52.094;5.232;2023-02-04T04:01:34;102206.0;;;0.35;100.0
63954;BME280;50128;52.094;5.232;2023-02-04T04:03:10;102200.0;;;0.22;100.0
63954;BME280;50128;52.094;5.232;2023-02-04T04:06:23;102198.0;;;0.22;100.0
63954;BME280;50128;52.094;5.232;2023-02-04T04:08:00;102200.0;;;0.12;100.0
63954;BME280;50128;52.094;5.232;2023-02-04T04:09:36;102206.0;;;0.03;100.0
63954;BME280;50128;52.094;5.232;2023-02-04T04:12:50;102207.0;;;0.08;100.0
63954;BME280;50128;52.094;5.232;2023-02-04T04:14:26;102207.0;;;0.08;100.0
63954;BME280;50128;52.094;5.232;2023-02-04T04:16:03;102205.0;;;0.06;100.0
63954;BME280;50128;52.094;5.232;2023-02-04T04:17:39;102208.0;;;0.06;100.0
63954;BME280;50128;52.094;5.232;2023-02-04T04:20:51;102205.0;;;0.0;100.0
63954;BME280;50128;52.094;5.232;2023-02-04T04:22:28;102205.0;;;0.02;100.0
63954;BME280;50128;52.094;5.232;2023-02-04T04:24:04;102207.0;;;-0.07;100.0
63954;BME280;50128;52.094;5.232;2023-02-04T04:27:17;102209.0;;;-0.04;100.0
63954;BME280;50128;52.094;5.232;2023-02-04T04:28:53;102211.0;;;-0.11;100.0
63954;BME280;50128;52.094;5.232;2023-02-04T04:30:29;102214.0;;;-0.08;100.0
63954;BME280;50128;52.094;5.232;2023-02-04T04:33:42;102217.0;;;-0.07;100.0
63954;BME280;50128;52.094;5.232;2023-02-04T04:35:18;102212.0;;;-0.12;100.0
63954;BME280;50128;52.094;5.232;2023-02-04T04:36:54;102210.0;;;-0.13;100.0
63954;BME280;50128;52.094;5.232;2023-02-04T04:40:09;102212.0;;;-0.06;100.0
63954;BME280;50128;52.094;5.232;2023-02-04T04:41:47;102216.0;;;-0.07;100.0
63954;BME280;50128;52.094;5.232;2023-02-04T04:43:23;102215.0;;;-0.07;100.0
63954;BME280;50128;52.094;5.232;2023-02-04T04:44:59;102219.0;;;-0.03;100.0
63954;BME280;50128;52.094;5.232;2023-02-04T04:48:11;102222.0;;;-0.08;100.0
63954;BME280;50128;52.094;5.232;2023-02-04T04:49:47;102222.0;;;-0.14;100.0
63954;BME280;50128;52.094;5.232;2023-02-04T04:51:24;102222.0;;;-0.11;100.0
63954;BME280;50128;52.094;5.232;2023-02-04T04:54:36;102221.0;;;-0.18;100.0
63954;BME280;50128;52.094;5.232;2023-02-04T04:56:12;102214.0;;;-0.2;100.0
63954;BME280;50128;52.094;5.232;2023-02-04T04:57:48;102211.0;;;-0.18;100.0
63954;BME280;50128;52.094;5.232;2023-02-04T05:01:01;102210.0;;;-0.07;100.0
63954;BME280;50128;52.094;5.232;2023-02-04T05:02:37;102212.0;;;-0.11;100.0
63954;BME280;50128;52.094;5.232;2023-02-04T05:04:13;102210.0;;;-0.11;100.0
63954;BME280;50128;52.094;5.232;2023-02-04T05:05:49;102213.0;;;-0.07;100.0
63954;BME280;50128;52.094;5.232;2023-02-04T05:09:02;102214.0;;;-0.06;100.0
63954;BME280;50128;52.094;5.232;2023-02-04T05:10:40;102217.0;;;-0.05;100.0
63954;BME280;50128;52.094;5.232;2023-02-04T05:12:16;102219.0;;;-0.03;100.0
63954;BME280;50128;52.094;5.232;2023-02-04T05:15:29;102217.0;;;0.08;100.0
63954;BME280;50128;52.094;5.232;2023-02-04T05:17:06;102217.0;;;0.05;100.0
63954;BME280;50128;52.094;5.232;2023-02-04T05:18:42;102222.0;;;0.11;100.0
63954;BME280;50128;52.094;5.232;2023-02-04T05:21:56;102223.0;;;0.09;100.0
63954;BME280;50128;52.094;5.232;2023-02-04T05:23:33;102219.0;;;0.09;100.0
63954;BME280;50128;52.094;5.232;2023-02-04T05:25:10;102222.0;;;0.09;100.0
63954;BME280;50128;52.094;5.232;2023-02-04T05:26:46;102223.0;;;0.15;100.0
63954;BME280;50128;52.094;5.232;2023-02-04T05:29:59;102219.0;;;0.15;100.0
63954;BME280;50128;52.094;5.232;2023-02-04T05:31:35;102216.0;;;0.16;100.0
63954;BME280;50128;52.094;5.232;2023-02-04T05:33:11;102213.0;;;0.39;100.0
63954;BME280;50128;52.094;5.232;2023-02-04T05:36:23;102218.0;;;0.48;100.0
63954;BME280;50128;52.094;5.232;2023-02-04T05:37:59;102218.0;;;0.46;100.0
63954;BME280;50128;52.094;5.232;2023-02-04T05:39:35;102218.0;;;0.35;100.0
63954;BME280;50128;52.094;5.232;2023-02-04T05:42:48;102223.0;;;0.34;100.0
63954;BME280;50128;52.094;5.232;2023-02-04T05:44:24;102221.0;;;0.3;100.0
63954;BME280;50128;52.094;5.232;2023-02-04T05:46:00;102223.0;;;0.34;100.0
63954;BME280;50128;52.094;5.232;2023-02-04T05:47:37;102231.0;;;0.33;100.0
63954;BME280;50128;52.094;5.232;2023-02-04T05:50:51;102232.0;;;0.36;100.0
63954;BME280;50128;52.094;5.232;2023-02-04T05:52:27;102239.0;;;0.41;100.0
63954;BME280;50128;52.094;5.232;2023-02-04T05:54:03;102251.0;;;0.39;100.0
63954;BME280;50128;52.094;5.232;2023-02-04T05:57:15;102255.0;;;0.35;100.0
63954;BME280;50128;52.094;5.232;2023-02-04T05:58:51;102256.0;;;0.38;100.0
63954;BME280;50128;52.094;5.232;2023-02-04T06:00:28;102255.0;;;0.4;100.0
63954;BME280;50128;52.094;5.232;2023-02-04T06:03:40;102255.0;;;0.4;100.0
63954;BME280;50128;52.094;5.232;2023-02-04T06:05:18;102262.0;;;0.39;100.0
63954;BME280;50128;52.094;5.232;2023-02-04T06:06:54;102259.0;;;0.39;100.0
63954;BME280;50128;52.094;5.232;2023-02-04T06:08:31;102258.0;;;0.39;100.0
63954;BME280;50128;52.094;5.232;2023-02-04T06:11:45;102256.0;;;0.37;100.0
63954;BME280;50128;52.094;5.232;2023-02-04T06:13:21;102257.0;;;0.34;100.0
63954;BME280;50128;52.094;5.232;2023-02-04T06:14:57;102266.0;;;0.32;100.0
63954;BME280;50128;52.094;5.232;2023-02-04T06:18:10;102268.0;;;0.29;100.0
63954;BME280;50128;52.094;5.232;2023-02-04T06:19:46;102268.0;;;0.25;100.0
63954;BME280;50128;52.094;5.232;2023-02-04T06:21:22;102272.0;;;0.2;100.0
63954;BME280;50128;52.094;5.232;2023-02-04T06:24:35;102280.0;;;0.17;100.0
63954;BME280;50128;52.094;5.232;2023-02-04T06:26:12;102287.0;;;0.12;100.0
63954;BME280;50128;52.094;5.232;2023-02-04T06:31:02;102291.0;;;0.21;100.0
63954;BME280;50128;52.094;5.232;2023-02-04T06:32:39;102294.0;;;0.09;100.0
63954;BME280;50128;52.094;5.232;2023-02-04T06:34:15;102302.0;;;0.15;100.0
63954;BME280;50128;52.094;5.232;2023-02-04T06:35:52;102307.0;;;0.03;100.0
63954;BME280;50128;52.094;5.232;2023-02-04T06:39:06;102309.0;;;0.04;100.0
63954;BME280;50128;52.094;5.232;2023-02-04T06:40:41;102309.0;;;0.05;100.0
63954;BME280;50128;52.094;5.232;2023-02-04T06:42:18;102306.0;;;0.04;100.0
63954;BME280;50128;52.094;5.232;2023-02-04T06:45:30;102310.0;;;0.06;100.0
63954;BME280;50128;52.094;5.232;2023-02-04T06:47:06;102311.0;;;0.09;100.0
63954;BME280;50128;52.094;5.232;2023-02-04T06:48:42;102316.0;;;0.09;100.0
63954;BME280;50128;52.094;5.232;2023-02-04T06:51:54;102322.0;;;0.16;100.0
63954;BME280;50128;52.094;5.232;2023-02-04T06:53:30;102328.0;;;0.16;100.0
63954;BME280;50128;52.094;5.232;2023-02-04T06:55:06;102325.0;;;0.23;100.0
63954;BME280;50128;52.094;5.232;2023-02-04T06:56:42;102326.0;;;0.16;100.0
63954;BME280;50128;52.094;5.232;2023-02-04T06:59:54;102330.0;;;0.18;100.0
63954;BME280;50128;52.094;5.232;2023-02-04T07:01:30;102331.0;;;0.12;100.0
63954;BME280;50128;52.094;5.232;2023-02-04T07:03:06;102334.0;;;0.09;100.0
63954;BME280;50128;52.094;5.232;2023-02-04T07:06:18;102331.0;;;0.25;100.0
63954;BME280;50128;52.094;5.232;2023-02-04T07:07:55;102328.0;;;0.16;100.0
63954;BME280;50128;52.094;5.232;2023-02-04T07:09:31;102330.0;;;0.17;100.0
63954;BME280;50128;52.094;5.232;2023-02-04T07:12:42;102333.0;;;0.23;100.0
63954;BME280;50128;52.094;5.232;2023-02-04T07:14:18;102335.0;;;0.18;100.0
63954;BME280;50128;52.094;5.232;2023-02-04T07:15:54;102332.0;;;0.15;100.0
63954;BME280;50128;52.094;5.232;2023-02-04T07:17:31;102332.0;;;0.13;100.0
63954;BME280;50128;52.094;5.232;2023-02-04T07:20:43;102336.0;;;0.19;100.0
63954;BME280;50128;52.094;5.232;2023-02-04T07:22:19;102333.0;;;0.27;100.0
63954;BME280;50128;52.094;5.232;2023-02-04T07:23:56;102337.0;;;0.4;100.0
63954;BME280;50128;52.094;5.232;2023-02-04T07:27:08;102337.0;;;0.35;100.0
63954;BME280;50128;52.094;5.232;2023-02-04T07:28:44;102339.0;;;0.42;100.0
63954;BME280;50128;52.094;5.232;2023-02-04T07:30:20;102346.0;;;0.44;100.0
63954;BME280;50128;52.094;5.232;2023-02-04T07:33:31;102351.0;;;0.44;100.0
63954;BME280;50128;52.094;5.232;2023-02-04T07:35:08;102347.0;;;0.37;100.0
63954;BME280;50128;52.094;5.232;2023-02-04T07:36:46;102351.0;;;0.33;100.0
63954;BME280;50128;52.094;5.232;2023-02-04T07:39:58;102361.0;;;0.43;100.0
63954;BME280;50128;52.094;5.232;2023-02-04T07:41:34;102366.0;;;0.47;100.0
63954;BME280;50128;52.094;5.232;2023-02-04T07:43:10;102365.0;;;0.45;100.0
63954;BME280;50128;52.094;5.232;2023-02-04T07:44:46;102364.0;;;0.62;100.0
63954;BME280;50128;52.094;5.232;2023-02-04T07:47:58;102370.0;;;0.62;100.0
63954;BME280;50128;52.094;5.232;2023-02-04T07:49:33;102367.0;;;0.62;100.0
63954;BME280;50128;52.094;5.232;2023-02-04T07:51:09;102367.0;;;0.64;100.0
63954;BME280;50128;52.094;5.232;2023-02-04T07:54:21;102374.0;;;0.76;100.0
63954;BME280;50128;52.094;5.232;2023-02-04T07:55:56;102375.0;;;0.73;100.0
63954;BME280;50128;52.094;5.232;2023-02-04T07:57:33;102377.0;;;0.67;100.0
63954;BME280;50128;52.094;5.232;2023-02-04T08:00:45;102377.0;;;0.86;100.0
63954;BME280;50128;52.094;5.232;2023-02-04T08:02:21;102380.0;;;0.89;100.0
63954;BME280;50128;52.094;5.232;2023-02-04T08:03:57;102385.0;;;0.87;100.0
63954;BME280;50128;52.094;5.232;2023-02-04T08:07:10;102386.0;;;0.89;100.0
63954;BME280;50128;52.094;5.232;2023-02-04T08:08:46;102388.0;;;0.94;100.0
63954;BME280;50128;52.094;5.232;2023-02-04T08:10:22;102386.0;;;0.89;100.0
63954;BME280;50128;52.094;5.232;2023-02-04T08:11:59;102394.0;;;0.9;100.0
63954;BME280;50128;52.094;5.232;2023-02-04T08:15:12;102391.0;;;0.89;100.0
63954;BME280;50128;52.094;5.232;2023-02-04T08:16:48;102398.0;;;0.87;100.0
63954;BME280;50128;52.094;5.232;2023-02-04T08:18:24;102403.0;;;0.9;100.0
63954;BME280;50128;52.094;5.232;2023-02-04T08:21:36;102401.0;;;0.9;100.0
63954;BME280;50128;52.094;5.232;2023-02-04T08:23:12;102403.0;;;0.98;100.0
63954;BME280;50128;52.094;5.232;2023-02-04T08:24:48;102406.0;;;1.02;100.0
63954;BME280;50128;52.094;5.232;2023-02-04T08:28:01;102409.99999999999;;;1.13;100.0
63954;BME280;50128;52.094;5.232;2023-02-04T08:29:38;102409.99999999999;;;1.12;100.0
63954;BME280;50128;52.094;5.232;2023-02-04T08:31:14;102409.99999999999;;;1.16;100.0
63954;BME280;50128;52.094;5.232;2023-02-04T08:32:50;102411.99999999999;;;1.21;100.0
63954;BME280;50128;52.094;5.232;2023-02-04T08:36:03;102415.00000000001;;;1.22;100.0
63954;BME280;50128;52.094;5.232;2023-02-04T08:37:39;102414.00000000001;;;1.23;100.0
63954;BME280;50128;52.094;5.232;2023-02-04T08:39:15;102421.0;;;1.39;100.0
63954;BME280;50128;52.094;5.232;2023-02-04T08:42:28;102419.0;;;1.37;100.0
63954;BME280;50128;52.094;5.232;2023-02-04T08:44:05;102420.0;;;1.37;100.0
63954;BME280;50128;52.094;5.232;2023-02-04T08:45:41;102420.0;;;1.44;100.0
63954;BME280;50128;52.094;5.232;2023-02-04T08:48:54;102419.0;;;1.67;100.0
63954;BME280;50128;52.094;5.232;2023-02-04T08:50:31;102420.0;;;1.89;100.0
63954;BME280;50128;52.094;5.232;2023-02-04T08:52:07;102423.0;;;1.75;100.0
63954;BME280;50128;52.094;5.232;2023-02-04T08:55:20;102430.0;;;1.64;100.0
63954;BME280;50128;52.094;5.232;2023-02-04T08:56:56;102431.0;;;1.78;100.0
63954;BME280;50128;52.094;5.232;2023-02-04T08:58:33;102433.99999999999;;;1.89;100.0
63954;BME280;50128;52.094;5.232;2023-02-04T09:00:11;102436.99999999999;;;1.91;100.0
63954;BME280;50128;52.094;5.232;2023-02-04T09:03:25;102436.99999999999;;;1.8;100.0
63954;BME280;50128;52.094;5.232;2023-02-04T09:05:01;102438.00000000001;;;1.89;100.0
63954;BME280;50128;52.094;5.232;2023-02-04T09:06:37;102439.00000000001;;;2.05;100.0
63954;BME280;50128;52.094;5.232;2023-02-04T09:09:50;102444.0;;;2.27;100.0
63954;BME280;50128;52.094;5.232;2023-02-04T09:11:26;102442.0;;;2.17;100.0
63954;BME280;50128;52.094;5.232;2023-02-04T09:13:03;102442.0;;;2.13;100.0
63954;BME280;50128;52.094;5.232;2023-02-04T09:16:17;102438.00000000001;;;2.31;100.0
63954;BME280;50128;52.094;5.232;2023-02-04T09:18:00;102436.99999999999;;;2.23;100.0
63954;BME280;50128;52.094;5.232;2023-02-04T09:19:36;102441.00000000001;;;2.31;100.0
63954;BME280;50128;52.094;5.232;2023-02-04T09:21:12;102441.00000000001;;;2.21;100.0
63954;BME280;50128;52.094;5.232;2023-02-04T09:24:25;102441.00000000001;;;2.23;100.0
63954;BME280;50128;52.094;5.232;2023-02-04T09:26:03;102441.00000000001;;;2.27;100.0
63954;BME280;50128;52.094;5.232;2023-02-04T09:27:40;102445.0;;;2.27;100.0
63954;BME280;50128;52.094;5.232;2023-02-04T09:30:53;102444.0;;;2.42;100.0
63954;BME280;50128;52.094;5.232;2023-02-04T09:32:28;102443.0;;;2.39;100.0
63954;BME280;50128;52.094;5.232;2023-02-04T09:34:05;102441.00000000001;;;2.41;100.0
63954;BME280;50128;52.094;5.232;2023-02-04T09:35:41;102445.0;;;2.46;100.0
63954;BME280;50128;52.094;5.232;2023-02-04T09:38:53;102443.0;;;2.4;100.0
63954;BME280;50128;52.094;5.232;2023-02-04T09:40:33;102446.0;;;2.46;100.0
63954;BME280;50128;52.094;5.232;2023-02-04T09:42:12;102448.0;;;2.54;100.0
63954;BME280;50128;52.094;5.232;2023-02-04T09:45:29;102447.0;;;2.54;100.0
63954;BME280;50128;52.094;5.232;2023-02-04T09:47:09;102451.0;;;2.5;100.0
63954;BME280;50128;52.094;5.232;2023-02-04T09:48:49;102452.0;;;2.48;100.0
63954;BME280;50128;52.094;5.232;2023-02-04T09:50:26;102453.0;;;2.58;100.0
63954;BME280;50128;52.094;5.232;2023-02-04T09:53:45;102455.0;;;2.65;100.0
63954;BME280;50128;52.094;5.232;2023-02-04T09:55:27;102458.0;;;2.92;100.0
63954;BME280;50128;52.094;5.232;2023-02-04T09:57:12;102458.0;;;2.86;98.89
63954;BME280;50128;52.094;5.232;2023-02-04T09:58:51;102461.99999999999;;;2.77;98.15
63954;BME280;50128;52.094;5.232;2023-02-04T10:02:17;102467.0;;;2.9;96.7
63954;BME280;50128;52.094;5.232;2023-02-04T10:04:00;102467.0;;;2.94;97.45
63954;BME280;50128;52.094;5.232;2023-02-04T10:05:37;102471.0;;;2.89;94.91
63954;BME280;50128;52.094;5.232;2023-02-04T10:07:16;102473.0;;;2.89;96.5
63954;BME280;50128;52.094;5.232;2023-02-04T10:10:32;102474.0;;;2.91;96.65
63954;BME280;50128;52.094;5.232;2023-02-04T10:12:08;102474.0;;;2.86;94.5
63954;BME280;50128;52.094;5.232;2023-02-04T10:13:46;102479.0;;;3.22;93.9
63954;BME280;50128;52.094;5.232;2023-02-04T10:15:23;102482.0;;;3.08;92.16
63954;BME280;50128;52.094;5.232;2023-02-04T10:18:38;102479.0;;;3.26;90.69
63954;BME280;50128;52.094;5.232;2023-02-04T10:20:16;102474.0;;;3.45;90.49
63954;BME280;50128;52.094;5.232;2023-02-04T10:21:54;102473.0;;;3.38;90.21
63954;BME280;50128;52.094;5.232;2023-02-04T10:25:11;102478.0;;;3.41;90.81
63954;BME280;50128;52.094;5.232;2023-02-04T10:26:48;102477.0;;;3.38;91.23
63954;BME280;50128;52.094;5.232;2023-02-04T10:28:32;102479.0;;;3.34;90.96
63954;BME280;50128;52.094;5.232;2023-02-04T10:30:17;102478.0;;;3.4;91.49
63954;BME280;50128;52.094;5.232;2023-02-04T10:33:32;102480.0;;;3.51;91.97
63954;BME280;50128;52.094;5.232;2023-02-04T10:35:12;102483.0;;;3.65;91.67
63954;BME280;50128;52.094;5.232;2023-02-04T10:36:52;102480.0;;;3.65;88.96
63954;BME280;50128;52.094;5.232;2023-02-04T10:38:29;102478.0;;;3.69;88.89
63954;BME280;50128;52.094;5.232;2023-02-04T10:42:02;102472.0;;;3.68;88.67
63954;BME280;50128;52.094;5.232;2023-02-04T10:43:38;102478.0;;;3.55;90.66
63954;BME280;50128;52.094;5.232;2023-02-04T10:45:21;102481.0;;;3.64;90.17
63954;BME280;50128;52.094;5.232;2023-02-04T10:46:59;102475.0;;;3.8;89.81
63954;BME280;50128;52.094;5.232;2023-02-04T10:50:17;102479.0;;;3.59;86.76
63954;BME280;50128;52.094;5.232;2023-02-04T10:51:55;102476.0;;;3.52;86.62
63954;BME280;50128;52.094;5.232;2023-02-04T10:54:37;102473.0;;;3.72;85.79
63954;BME280;50128;52.094;5.232;2023-02-04T10:56:16;102468.0;;;3.68;87.21
63954;BME280;50128;52.094;5.232;2023-02-04T10:57:55;102469.0;;;3.7;87.23
63954;BME280;50128;52.094;5.232;2023-02-04T10:59:32;102469.0;;;3.72;86.03
63954;BME280;50128;52.094;5.232;2023-02-04T11:02:53;102474.0;;;3.86;86.09
63954;BME280;50128;52.094;5.232;2023-02-04T11:04:31;102476.0;;;3.89;85.78
63954;BME280;50128;52.094;5.232;2023-02-04T11:06:10;102473.0;;;3.81;85.32
63954;BME280;50128;52.094;5.232;2023-02-04T11:07:49;102469.0;;;3.71;85.58
63954;BME280;50128;52.094;5.232;2023-02-04T11:11:05;102468.0;;;3.7;85.16
63954;BME280;50128;52.094;5.232;2023-02-04T11:12:43;102470.0;;;3.75;84.84
63954;BME280;50128;52.094;5.232;2023-02-04T11:14:24;102476.0;;;3.78;86.05
63954;BME280;50128;52.094;5.232;2023-02-04T11:16:10;102477.0;;;3.78;85.03